createdAt,value
2019-05-01T00:02:40.633Z,21.62
2019-05-01T00:05:24.648Z,29.23
2019-05-01T00:07:56.712Z,20.88
2019-05-01T00:10:28.873Z,21.95
2019-05-01T00:15:34.204Z,21.30
2019-05-01T00:18:06.712Z,27.80
2019-05-01T00:20:38.992Z,25.80
2019-05-01T00:23:12.799Z,23.65
2019-05-01T00:25:45.312Z,26.45
2019-05-01T00:28:19.102Z,31.70
2019-05-01T00:30:59.012Z,28.90
2019-05-01T00:33:31.333Z,22.70
2019-05-01T00:38:34.123Z,27.75
2019-05-01T00:41:08.806Z,27.77
2019-05-01T00:43:40.713Z,22.22
2019-05-01T00:46:12.693Z,21.27
2019-05-01T00:48:44.713Z,25.65
2019-05-01T00:51:18.695Z,20.17
2019-05-01T00:53:53.153Z,22.37
2019-05-01T00:56:44.192Z,21.85
2019-05-01T00:59:35.153Z,23.38
2019-05-01T01:02:22.353Z,20.75
2019-05-01T01:04:54.813Z,26.90
2019-05-01T01:07:26.875Z,20.10
2019-05-01T01:09:59.073Z,25.27
2019-05-01T01:12:31.182Z,23.22
2019-05-01T01:15:05.254Z,28.05
2019-05-01T01:17:37.193Z,21.15
2019-05-01T01:20:09.453Z,21.05
2019-05-01T01:22:41.553Z,19.95
2019-05-01T01:25:14.264Z,21.97
2019-05-01T01:27:46.715Z,20.30
2019-05-01T01:30:19.063Z,22.90
2019-05-01T01:32:51.143Z,19.45
2019-05-01T01:35:24.813Z,21.23
2019-05-01T01:37:56.824Z,20.55
2019-05-01T01:40:29.173Z,18.30
2019-05-01T01:45:53.273Z,23.92
2019-05-01T01:48:25.734Z,24.55
2019-05-01T01:51:00.963Z,23.52
2019-05-01T01:53:33.992Z,19.92
2019-05-01T01:56:06.252Z,20.77
2019-05-01T01:58:38.463Z,25.45
2019-05-01T02:04:09.913Z,25.00
2019-05-01T02:06:42.127Z,20.48
2019-05-01T02:11:47.085Z,21.45
2019-05-01T02:14:19.092Z,20.75
2019-05-01T02:16:51.253Z,20.65
2019-05-01T02:21:54.273Z,22.42
2019-05-01T02:24:26.403Z,18.95
2019-05-01T02:29:40.952Z,20.37
2019-05-01T02:32:13.975Z,24.70
2019-05-01T02:34:47.996Z,24.65
2019-05-01T02:37:20.694Z,23.98
2019-05-01T02:39:53.697Z,20.82
2019-05-01T02:42:28.744Z,19.67
2019-05-01T02:45:03.323Z,23.20
2019-05-01T02:47:39.234Z,25.00
2019-05-01T02:50:12.449Z,19.82
2019-05-01T02:52:46.015Z,17.85
2019-05-01T02:55:28.381Z,28.35
2019-05-01T02:58:01.546Z,18.17
2019-05-01T03:00:33.903Z,18.12
2019-05-01T03:03:06.253Z,20.97
2019-05-01T03:08:10.297Z,20.92
2019-05-01T03:10:42.814Z,18.05
2019-05-01T03:13:15.375Z,19.48
2019-05-01T03:15:48.273Z,19.87
2019-05-01T03:18:35.053Z,17.65
2019-05-01T03:21:19.869Z,21.23
2019-05-01T03:23:56.328Z,19.60
2019-05-01T03:26:28.464Z,16.30
2019-05-01T03:29:03.255Z,16.35
2019-05-01T03:31:35.493Z,15.40
2019-05-01T03:34:07.840Z,18.30
2019-05-01T03:36:40.884Z,15.10
2019-05-01T03:39:13.706Z,17.42
2019-05-01T03:41:47.318Z,16.62
2019-05-01T03:44:20.276Z,15.18
2019-05-01T03:46:53.305Z,16.12
2019-05-01T03:49:26.297Z,17.20
2019-05-01T03:51:58.948Z,16.48
2019-05-01T03:54:31.515Z,15.00
2019-05-01T03:57:04.005Z,16.35
2019-05-01T03:59:36.438Z,16.62
2019-05-01T04:02:33.909Z,17.30
2019-05-01T04:04:59.770Z,17.37
2019-05-01T04:07:36.089Z,16.23
2019-05-01T04:10:06.975Z,18.95
2019-05-01T04:12:39.657Z,14.87
2019-05-01T04:15:12.153Z,15.53
2019-05-01T04:17:49.607Z,15.23
2019-05-01T04:20:21.957Z,14.40
2019-05-01T04:22:57.305Z,15.32
2019-05-01T04:25:29.535Z,15.58
2019-05-01T04:30:53.114Z,14.63
2019-05-01T04:33:26.256Z,11.30
2019-05-01T04:36:04.385Z,12.95
2019-05-01T04:38:36.685Z,13.95
2019-05-01T04:41:08.985Z,15.58
2019-05-01T04:43:41.417Z,12.15
2019-05-01T04:46:14.109Z,13.35
2019-05-01T04:48:46.254Z,13.30
2019-05-01T04:53:51.206Z,11.85
2019-05-01T04:56:23.337Z,11.63
2019-05-01T05:01:31.125Z,11.25
2019-05-01T05:04:03.365Z,13.58
2019-05-01T05:06:35.766Z,11.57
2019-05-01T05:11:49.704Z,10.98
2019-05-01T05:14:26.645Z,9.58
2019-05-01T05:17:05.796Z,11.25
2019-05-01T05:19:38.992Z,10.48
2019-05-01T05:22:11.344Z,11.93
2019-05-01T05:24:43.703Z,11.48
2019-05-01T05:27:16.763Z,10.68
2019-05-01T05:29:49.445Z,10.32
2019-05-01T05:32:23.655Z,9.60
2019-05-01T05:34:59.607Z,10.10
2019-05-01T05:37:39.765Z,8.98
2019-05-01T05:40:12.681Z,7.72
2019-05-01T05:42:45.114Z,9.15
2019-05-01T05:45:17.926Z,8.25
2019-05-01T05:47:51.154Z,6.58
2019-05-01T05:50:25.543Z,7.28
2019-05-01T05:53:03.333Z,7.85
2019-05-01T05:55:44.725Z,8.10
2019-05-01T05:58:26.266Z,6.95
2019-05-01T06:01:22.426Z,7.70
2019-05-01T06:04:21.355Z,6.47
2019-05-01T06:07:07.953Z,6.35
2019-05-01T06:09:51.555Z,7.40
2019-05-01T06:12:46.820Z,5.95
2019-05-01T06:15:41.266Z,5.87
2019-05-01T06:18:46.634Z,6.62
2019-05-01T06:21:46.893Z,6.22
2019-05-01T06:24:24.106Z,6.05
2019-05-01T06:26:57.485Z,5.40
2019-05-01T06:29:35.817Z,5.90
2019-05-01T06:32:05.545Z,5.62
2019-05-01T06:34:37.914Z,5.42
2019-05-01T06:37:09.805Z,6.20
2019-05-01T06:42:16.914Z,5.53
2019-05-01T06:45:13.039Z,5.40
2019-05-01T06:48:01.966Z,6.08
2019-05-01T06:50:43.925Z,5.08
2019-05-01T06:53:16.388Z,6.25
2019-05-01T06:55:51.438Z,5.75
2019-05-01T06:58:23.514Z,6.28
2019-05-01T07:00:55.735Z,6.83
2019-05-01T07:03:28.814Z,8.08
2019-05-01T07:06:13.744Z,9.08
2019-05-01T07:08:39.515Z,9.63
2019-05-01T07:11:10.833Z,8.20
2019-05-01T07:13:51.734Z,6.75
2019-05-01T07:16:24.863Z,7.55
2019-05-01T07:19:05.841Z,6.92
2019-05-01T07:21:32.911Z,8.15
2019-05-01T07:24:06.273Z,8.23
2019-05-01T07:29:12.395Z,6.65
2019-05-01T07:31:47.713Z,6.22
2019-05-01T07:34:21.757Z,6.25
2019-05-01T07:36:54.115Z,7.30
2019-05-01T07:39:26.315Z,7.25
2019-05-01T07:44:38.493Z,5.78
2019-05-01T07:47:18.440Z,6.03
2019-05-01T07:49:58.051Z,5.85
2019-05-01T07:52:31.095Z,7.03
2019-05-01T07:55:04.526Z,6.17
2019-05-01T07:57:39.504Z,5.70
2019-05-01T08:00:21.425Z,6.33
2019-05-01T08:02:53.825Z,6.20
2019-05-01T08:05:26.048Z,7.67
2019-05-01T08:07:58.433Z,10.10
2019-05-01T08:10:33.725Z,8.20
2019-05-01T08:13:04.265Z,7.75
2019-05-01T08:15:36.418Z,11.03
2019-05-01T08:21:26.166Z,8.00
2019-05-01T08:23:59.686Z,7.60
2019-05-01T08:26:32.113Z,10.05
2019-05-01T08:29:27.604Z,7.90
2019-05-01T08:32:11.095Z,9.78
2019-05-01T08:34:49.156Z,12.03
2019-05-01T08:37:22.678Z,11.60
2019-05-01T08:39:52.483Z,9.68
2019-05-01T08:42:24.513Z,7.22
2019-05-01T08:45:18.215Z,7.25
2019-05-01T08:48:00.362Z,7.22
2019-05-01T08:50:31.535Z,6.65
2019-05-01T08:53:03.667Z,6.25
2019-05-01T08:58:13.929Z,6.00
2019-05-01T09:00:45.325Z,6.15
2019-05-01T09:08:22.665Z,5.22
2019-05-01T09:10:59.920Z,5.60
2019-05-01T09:13:29.395Z,6.97
2019-05-01T09:16:01.666Z,6.10
2019-05-01T09:18:33.833Z,6.20
2019-05-01T09:23:37.254Z,5.92
2019-05-01T09:29:11.048Z,5.62
2019-05-01T09:31:44.685Z,5.40
2019-05-01T09:34:19.247Z,5.40
2019-05-01T09:36:51.107Z,5.58
2019-05-01T09:44:27.685Z,5.17
2019-05-01T09:47:00.136Z,5.20
2019-05-01T09:49:32.283Z,6.12
2019-05-01T09:55:04.505Z,5.80
2019-05-01T09:57:41.478Z,6.33
2019-05-01T10:00:15.362Z,5.15
2019-05-01T10:02:47.565Z,5.72
2019-05-01T10:07:52.705Z,6.00
2019-05-01T10:10:29.305Z,5.67
2019-05-01T10:12:59.192Z,5.25
2019-05-01T10:18:02.203Z,4.75
2019-05-01T10:20:34.073Z,5.25
2019-05-01T10:28:20.546Z,5.17
2019-05-01T10:31:06.937Z,5.58
2019-05-01T10:33:42.987Z,4.75
2019-05-01T10:36:33.863Z,4.87
2019-05-01T10:39:07.987Z,5.28
2019-05-01T10:41:41.011Z,5.62
2019-05-01T10:44:13.875Z,5.78
2019-05-01T10:49:16.833Z,4.75
2019-05-01T10:54:20.153Z,5.03
2019-05-01T10:56:52.094Z,4.78
2019-05-01T10:59:24.114Z,5.25
2019-05-01T11:01:58.715Z,4.70
2019-05-01T11:04:31.027Z,4.80
2019-05-01T11:07:03.183Z,5.25
2019-05-01T11:12:06.213Z,4.90
2019-05-01T11:17:09.034Z,6.25
2019-05-01T11:22:12.113Z,4.70
2019-05-01T11:27:14.905Z,4.12
2019-05-01T11:32:45.673Z,4.70
2019-05-01T11:35:48.655Z,4.47
2019-05-01T11:38:42.623Z,4.15
2019-05-01T11:41:24.665Z,4.33
2019-05-01T11:43:56.733Z,3.77
2019-05-01T11:46:29.110Z,4.67
2019-05-01T11:49:01.098Z,4.22
2019-05-01T11:51:33.124Z,4.37
2019-05-01T11:56:36.295Z,4.28
2019-05-01T12:01:39.194Z,4.87
2019-05-01T12:06:42.215Z,4.90
2019-05-01T12:11:48.046Z,4.53
2019-05-01T12:14:20.024Z,4.45
2019-05-01T12:19:34.755Z,3.98
2019-05-01T12:22:06.720Z,4.20
2019-05-01T12:24:39.387Z,4.28
2019-05-01T12:27:11.326Z,4.10
2019-05-01T12:29:43.315Z,3.70
2019-05-01T12:34:46.464Z,3.50
2019-05-01T12:37:29.335Z,3.58
2019-05-01T12:40:01.423Z,3.47
2019-05-01T12:42:34.603Z,4.05
2019-05-01T12:45:08.725Z,3.20
2019-05-01T12:47:52.397Z,4.10
2019-05-01T12:50:24.773Z,3.30
2019-05-01T12:53:11.394Z,3.87
2019-05-01T12:56:05.275Z,4.15
2019-05-01T12:58:37.946Z,3.75
2019-05-01T13:01:10.166Z,4.15
2019-05-01T13:06:14.505Z,3.60
2019-05-01T13:08:46.646Z,3.72
2019-05-01T13:13:49.573Z,3.83
2019-05-01T13:18:53.740Z,3.65
2019-05-01T13:21:25.685Z,4.00
2019-05-01T13:26:34.575Z,4.08
2019-05-01T13:29:26.049Z,3.65
2019-05-01T13:32:15.845Z,3.35
2019-05-01T13:34:48.130Z,3.58
2019-05-01T13:37:20.665Z,3.42
2019-05-01T13:42:23.485Z,4.00
2019-05-01T13:44:55.547Z,2.90
2019-05-01T13:49:59.146Z,3.10
2019-05-01T13:55:05.144Z,3.02
2019-05-01T13:57:37.133Z,3.58
2019-05-01T14:02:43.195Z,3.33
2019-05-01T14:05:15.445Z,3.55
2019-05-01T14:10:18.705Z,3.30
2019-05-01T14:12:50.894Z,3.05
2019-05-01T14:17:53.645Z,3.17
2019-05-01T14:23:23.986Z,2.95
2019-05-01T14:26:06.085Z,3.10
2019-05-01T14:28:38.731Z,2.58
2019-05-01T14:33:41.605Z,2.10
2019-05-01T14:36:13.726Z,2.65
2019-05-01T14:38:45.896Z,2.45
2019-05-01T14:41:20.005Z,2.42
2019-05-01T14:46:22.937Z,2.45
2019-05-01T14:48:54.998Z,2.33
2019-05-01T14:51:27.303Z,2.62
2019-05-01T14:53:59.445Z,2.10
2019-05-01T14:56:31.593Z,2.33
2019-05-01T14:59:03.653Z,2.10
2019-05-01T15:04:06.671Z,2.42
2019-05-01T15:06:39.865Z,2.40
2019-05-01T15:09:12.134Z,2.27
2019-05-01T15:11:45.267Z,2.50
2019-05-01T15:14:42.685Z,2.10
2019-05-01T15:17:26.683Z,2.08
2019-05-01T15:20:05.267Z,1.92
2019-05-01T15:22:38.973Z,1.85
2019-05-01T15:27:44.954Z,1.57
2019-05-01T15:30:20.433Z,1.70
2019-05-01T15:32:52.753Z,1.87
2019-05-01T15:35:24.874Z,1.90
2019-05-01T15:40:38.164Z,1.98
2019-05-01T15:43:44.376Z,1.65
2019-05-01T15:46:16.635Z,1.87
2019-05-01T15:48:49.013Z,2.27
2019-05-01T15:53:51.826Z,2.20
2019-05-01T15:56:23.806Z,2.42
2019-05-01T15:58:56.215Z,2.35
2019-05-01T16:01:28.325Z,2.60
2019-05-01T16:04:00.376Z,2.30
2019-05-01T16:09:03.474Z,2.60
2019-05-01T16:12:11.216Z,2.58
2019-05-01T16:14:46.555Z,2.47
2019-05-01T16:17:18.473Z,2.50
2019-05-01T16:19:50.553Z,2.30
2019-05-01T16:24:53.313Z,2.72
2019-05-01T16:27:25.308Z,2.58
2019-05-01T16:29:57.493Z,2.90
2019-05-01T16:32:29.595Z,3.00
2019-05-01T16:35:02.145Z,2.80
2019-05-01T16:37:34.405Z,2.40
2019-05-01T16:42:52.973Z,2.90
2019-05-01T16:47:55.753Z,2.37
2019-05-01T16:50:27.833Z,2.77
2019-05-01T16:55:31.697Z,2.70
2019-05-01T16:58:05.153Z,2.47
2019-05-01T17:01:15.483Z,3.00
2019-05-01T17:04:06.415Z,3.25
2019-05-01T17:07:00.376Z,3.40
2019-05-01T17:09:49.744Z,2.55
2019-05-01T17:12:24.696Z,3.02
2019-05-01T17:14:56.948Z,2.83
2019-05-01T17:17:29.766Z,3.60
2019-05-01T17:20:01.952Z,2.52
2019-05-01T17:22:35.134Z,3.50
2019-05-01T17:27:39.003Z,3.67
2019-05-01T17:30:17.106Z,3.40
2019-05-01T17:32:50.191Z,3.42
2019-05-01T17:35:22.102Z,3.33
2019-05-01T17:37:54.276Z,3.98
2019-05-01T17:42:57.123Z,3.92
2019-05-01T17:45:29.966Z,4.37
2019-05-01T17:48:03.349Z,4.28
2019-05-01T17:50:35.245Z,4.35
2019-05-01T17:53:07.475Z,4.40
2019-05-01T17:55:39.763Z,3.90
2019-05-01T18:01:01.634Z,4.35
2019-05-01T18:04:03.180Z,3.40
2019-05-01T18:06:42.016Z,3.42
2019-05-01T18:09:13.522Z,4.08
2019-05-01T18:11:47.312Z,3.52
2019-05-01T18:14:19.783Z,3.75
2019-05-01T18:16:53.285Z,3.90
2019-05-01T18:19:25.249Z,4.50
2019-05-01T18:22:06.945Z,4.30
2019-05-01T18:25:12.653Z,4.67
2019-05-01T18:27:59.973Z,4.42
2019-05-01T18:30:36.225Z,5.08
2019-05-01T18:33:08.268Z,4.35
2019-05-01T18:35:40.253Z,4.53
2019-05-01T18:38:30.174Z,5.42
2019-05-01T18:41:09.228Z,5.08
2019-05-01T18:43:41.305Z,6.08
2019-05-01T18:46:14.003Z,4.95
2019-05-01T18:48:46.146Z,5.30
2019-05-01T18:51:18.424Z,4.75
2019-05-01T18:53:50.436Z,4.53
2019-05-01T18:56:22.625Z,5.22
2019-05-01T18:58:54.686Z,5.25
2019-05-01T19:01:26.745Z,5.35
2019-05-01T19:06:40.571Z,4.95
2019-05-01T19:09:14.841Z,6.22
2019-05-01T19:11:40.666Z,5.50
2019-05-01T19:16:45.339Z,5.25
2019-05-01T19:19:18.195Z,5.28
2019-05-01T19:21:53.896Z,6.03
2019-05-01T19:24:25.883Z,5.80
2019-05-01T19:29:32.187Z,7.92
2019-05-01T19:32:03.105Z,6.12
2019-05-01T19:37:06.563Z,5.15
2019-05-01T19:39:43.894Z,5.58
2019-05-01T19:42:12.864Z,5.62
2019-05-01T19:47:15.794Z,5.92
2019-05-01T19:49:47.853Z,6.97
2019-05-01T19:52:23.421Z,6.35
2019-05-01T19:54:55.926Z,6.67
2019-05-01T19:59:58.777Z,6.25
2019-05-01T20:02:30.918Z,6.22
2019-05-01T20:07:34.127Z,7.10
2019-05-01T20:12:37.638Z,8.53
2019-05-01T20:17:41.054Z,7.08
2019-05-01T20:22:48.245Z,6.58
2019-05-01T20:25:19.356Z,6.97
2019-05-01T20:27:53.223Z,6.45
2019-05-01T20:30:25.463Z,6.33
2019-05-01T20:32:58.219Z,5.78
2019-05-01T20:35:34.167Z,6.12
2019-05-01T20:38:05.153Z,5.80
2019-05-01T20:40:37.413Z,6.72
2019-05-01T20:45:40.594Z,5.62
2019-05-01T20:48:12.745Z,5.78
2019-05-01T20:50:44.775Z,6.58
2019-05-01T20:55:55.345Z,5.80
2019-05-01T20:58:27.494Z,5.95
2019-05-01T21:01:03.071Z,6.45
2019-05-01T21:03:36.806Z,5.37
2019-05-01T21:06:33.825Z,5.50
2019-05-01T21:09:25.386Z,5.22
2019-05-01T21:12:05.390Z,5.53
2019-05-01T21:14:32.245Z,5.67
2019-05-01T21:17:09.662Z,4.95
2019-05-01T21:19:38.916Z,4.95
2019-05-01T21:22:10.833Z,5.37
2019-05-01T21:24:44.419Z,5.17
2019-05-01T21:27:16.494Z,5.37
2019-05-01T21:29:48.524Z,5.08
2019-05-01T21:34:53.725Z,5.50
2019-05-01T21:37:25.875Z,5.58
2019-05-01T21:39:57.825Z,4.60
2019-05-01T21:42:29.865Z,5.80
2019-05-01T21:45:04.178Z,5.55
2019-05-01T21:47:35.614Z,5.97
2019-05-01T21:50:08.756Z,6.00
2019-05-01T21:52:43.783Z,5.60
2019-05-01T21:55:15.853Z,5.78
2019-05-01T21:57:50.097Z,4.90
2019-05-01T22:00:24.785Z,5.95
2019-05-01T22:02:57.309Z,6.20
2019-05-01T22:05:29.345Z,4.95
2019-05-01T22:08:03.805Z,6.15
2019-05-01T22:10:35.286Z,5.83
2019-05-01T22:15:47.152Z,6.25
2019-05-01T22:18:21.946Z,6.05
2019-05-01T22:21:18.533Z,5.58
2019-05-01T22:24:07.114Z,5.55
2019-05-01T22:26:42.976Z,5.62
2019-05-01T22:29:16.655Z,5.92
2019-05-01T22:32:07.393Z,5.65
2019-05-01T22:34:46.315Z,5.40
2019-05-01T22:37:18.216Z,6.50
2019-05-01T22:39:56.573Z,5.90
2019-05-01T22:42:28.436Z,6.30
2019-05-01T22:45:00.365Z,5.87
2019-05-01T22:47:33.853Z,6.05
2019-05-01T22:50:09.003Z,5.72
2019-05-01T22:52:40.853Z,5.42
2019-05-01T22:55:15.793Z,6.87
2019-05-01T22:57:48.243Z,6.40
2019-05-01T23:00:40.093Z,6.58
2019-05-01T23:03:18.753Z,7.08
2019-05-01T23:05:50.726Z,6.85
2019-05-01T23:08:23.075Z,6.70
2019-05-01T23:10:55.085Z,6.40
2019-05-01T23:13:26.985Z,5.78
2019-05-01T23:15:59.193Z,6.25
2019-05-01T23:21:02.025Z,8.20
2019-05-01T23:26:06.328Z,7.70
2019-05-01T23:28:39.879Z,7.42
2019-05-01T23:31:11.935Z,7.05
2019-05-01T23:33:45.684Z,7.28
2019-05-01T23:36:23.817Z,7.00
2019-05-01T23:38:51.213Z,7.25
2019-05-01T23:41:44.280Z,6.25
2019-05-01T23:43:58.148Z,8.43
2019-05-01T23:46:31.445Z,8.03
2019-05-01T23:49:04.735Z,8.60
2019-05-01T23:51:36.713Z,7.03
2019-05-01T23:54:08.582Z,12.13
2019-05-01T23:59:11.713Z,10.60
